Flight Track Log - Related Links

Times and Time Zones

All times are in EDT time to prevent confusion due to time zone crossing. See the N320WD flight status page for this flight to view local times or setup timezone preferences in your user account.

Time Position Orientation Groundspeed Altitude Reporting Facility
EDT Latitude Longitude Course Direction KTS MPH feet Rate Location/Type
Tue 04:48:44 PM 35.7572 -79.4083 56° Northeast 153 176 3,500  Level Washington Center
Tue 04:49:39 PM 35.7750 -79.3708 60° Northeast 159 183 4,300 750 Climbing Washington Center
Tue 04:50:28 PM 35.7928 -79.3383 56° Northeast 142 163 4,800 436 Climbing Washington Center
Tue 04:51:29 PM 35.8150 -79.2933 59° Northeast 147 169 5,100 148 Climbing Washington Center
Tue 04:52:30 PM 35.8375 -79.2456 60° Northeast 168 193 5,100  Level Washington Center
Tue 04:53:00 PM 35.7937 -79.2680 56° Northeast  Level Estimated
Tue 04:53:36 PM 35.8703 -79.1933 52° Northeast 168 193 5,100  Level Washington Center
Tue 04:54:37 PM 35.8947 -79.1433 59° Northeast 164 189 5,000  Descending Washington Center
Tue 04:55:29 PM 35.9167 -79.1031 56° Northeast 159 183 5,100 52 Climbing Washington Center
Tue 04:56:33 PM 35.9392 -79.0553 60° Northeast 160 184 5,100 -48 Level Washington Center
Tue 04:57:33 PM 35.9633 -79.0078 58° Northeast 163 188 5,000  Descending Washington Center
Tue 04:58:34 PM 35.9897 -78.9653 52° Northeast 162 186 5,100  Climbing Washington Center
Tue 04:59:35 PM 36.0139 -78.9147 59° Northeast 164 189 5,000  Descending Washington Center
Tue 05:00:35 PM 36.0381 -78.8697 56° Northeast 161 185 5,100 50 Climbing Washington Center
Tue 05:01:36 PM 36.0625 -78.8167 60° Northeast 171 197 5,100 -49 Level Washington Center
Tue 05:02:37 PM 36.0828 -78.7611 66° East 169 194 5,000 149 Descending Washington Center
Tue 05:03:37 PM 36.1031 -78.7103 64° Northeast 168 193 5,400 496 Climbing Washington Center
Tue 05:04:38 PM 36.1186 -78.6672 66° East 135 155 6,000 563 Climbing Washington Center
Tue 05:05:45 PM 36.1367 -78.6167 66° East 134 154 6,600 516 Climbing Washington Center
Tue 05:06:46 PM 36.1522 -78.5761 65° Northeast 135 155 7,100 337 Climbing Washington Center
Tue 05:07:14 PM 36.1633 -78.5456 66° East 137 158 7,100 -98 Level Washington Center
Tue 05:07:47 PM 36.1681 -78.5303 69° East 148 170 7,000 -383 Descending Washington Center
Tue 05:08:48 PM 36.1883 -78.4719 67° East 180 207 6,500 -491 Descending Washington Center
Tue 05:09:37 PM 36.1997 -78.4286 72° East 181 208 6,100 -606 Descending Washington Center
Tue 05:10:37 PM 36.2181 -78.3622 71° East 197 227 5,400 -496 Descending Washington Center
Tue 05:11:38 PM 36.2339 -78.3061 71° East 192 221 5,100 -202 Descending Washington Center
Tue 05:12:36 PM 36.2478 -78.2447 74° East 177 204 5,000  Descending Washington Center
Tue 05:13:37 PM 36.2633 -78.1964 68° East 167 192 5,100 49 Climbing Washington Center
Tue 05:14:38 PM 36.2792 -78.1378 71° East 162 186 5,100  Level Washington Center
Tue 05:15:39 PM 36.2928 -78.0867 72° East 162 186 5,100  Level Washington Center
Tue 05:16:36 PM 36.3044 -78.0328 75° East 162 186 5,100 -51 Level Washington Center
Tue 05:17:36 PM 36.3222 -77.9792 68° East 162 186 5,000 -50 Descending Washington Center
Tue 05:18:37 PM 36.3378 -77.9256 70° East 162 186 5,000 -49 Level Washington Center
Tue 05:19:38 PM 36.3494 -77.8692 76° East 162 186 4,900 50 Descending Washington Center
Tue 05:20:38 PM 36.3669 -77.8156 68° East 162 186 5,100 102 Climbing Washington Center
Tue 05:21:36 PM 36.3783 -77.7617 75° East 162 186 5,100 -51 Level Washington Center
Tue 05:22:36 PM 36.3942 -77.7053 71° East 162 186 5,000  Descending Washington Center
Tue 05:23:37 PM 36.4075 -77.6514 73° East 162 186 5,100 49 Climbing Washington Center
Tue 05:24:38 PM 36.4231 -77.5978 70° East 167 192 5,100  Level Washington Center
Tue 05:25:39 PM 36.4386 -77.5308 74° East 167 192 5,100 -51 Level Washington Center
Tue 05:26:36 PM 36.4564 -77.4797 67° East 167 192 5,000 51 Descending Washington Center
Tue 05:27:37 PM 36.4739 -77.4258 68° East 167 192 5,200 99 Climbing Washington Center
Tue 05:28:37 PM 36.4933 -77.3722 66° East 167 192 5,200 50 Level Washington Center
Tue 05:29:37 PM 36.5108 -77.3156 69° East 167 192 5,300 -52 Climbing Washington Center
Tue 05:30:32 PM 36.5281 -77.2747 62° Northeast 167 192 5,100 -98 Descending Washington Center
Tue 05:30:38 PM 36.5303 -77.2644 75° East 167 192 5,200  Climbing Washington Center
Tue 05:30:50 PM 36.5325 -77.2567 70° East 167 192 5,100  Descending Washington Center
Tue 05:31:36 PM 36.5478 -77.2181 64° Northeast 167 192 5,200  Climbing Washington Center
Tue 05:31:54 PM 36.5522 -77.2028 70° East 169 194 5,100 -100 Descending Washington Center
Tue 05:32:36 PM 36.5650 -77.1642 68° East 167 192 5,100 -111 Level Washington Center
Tue 05:32:48 PM 36.5694 -77.1489 70° East 169 194 5,000 -98 Descending Washington Center
Tue 05:33:37 PM 36.5844 -77.1103 64° Northeast 167 192 5,000 103 Level Washington Center
Tue 05:33:46 PM 36.5889 -77.0975 67° East 170 196 5,100 98 Climbing Washington Center
Tue 05:34:38 PM 36.6019 -77.0589 67° East 172 198 5,100  Level Washington Center
Tue 05:34:47 PM 36.6061 -77.0461 68° East 163 188 5,100  Level Washington Center
Tue 05:35:39 PM 36.6192 -77.0075 67° East 167 192 5,100 -98 Level Washington Center
Tue 05:35:48 PM 36.6214 -76.9947 78° East 161 185 5,000 -526 Descending Washington Center
Tue 05:36:36 PM 36.6303 -76.9481 77° East 167 192 4,600 -537 Descending Washington Center
Tue 05:36:55 PM 36.6347 -76.9250 76° East 178 205 4,400 -492 Descending Washington Center
Tue 05:37:37 PM 36.6414 -76.8889 77° East 167 192 4,100 -300 Descending Washington Center
Tue 05:37:55 PM 36.6458 -76.8681 75° East 178 205 4,100 -98 Level Washington Center
Tue 05:38:38 PM 36.6525 -76.8347 76° East 167 192 4,000 -218 Descending Washington Center
Tue 05:38:50 PM 36.6547 -76.8139 82° East 164 189 3,900  Descending Washington Center
Tue 05:39:36 PM 36.6636 -76.7728 75° East 162 186 4,000 98 Climbing Washington Center
Tue 05:39:51 PM 36.6656 -76.7622 77° East 162 186 4,000 79 Level Washington Center
Tue 05:40:52 PM 36.6767 -76.7081 76° East 153 176 4,100 49 Climbing Washington Center
Tue 05:41:53 PM 36.6856 -76.6564 78° East 159 183 4,100  Level Washington Center
Tue 05:42:53 PM 36.6942 -76.5997 79° East 158 182 4,100  Level Washington Center
Tue 05:44:00 PM 36.7053 -76.5428 76° East 158 182 4,100  Level Washington Center
Tue 05:45:04 PM 36.7161 -76.4883 76° East 158 182 4,100 -99 Level Washington Center
Tue 05:46:01 PM 36.7247 -76.4342 79° East 160 184 3,900 -454 Descending Washington Center
Tue 05:47:03 PM 36.7356 -76.3772 77° East 173 199 3,200 -738 Descending Washington Center
Tue 05:48:03 PM 36.7631 -76.3283 55° Northeast 180 207 2,400 -783 Descending Washington Center
Tue 05:48:58 PM 36.7967 -76.2975 36° Northeast 156 180 1,700 -356 Descending Washington Center
Tue 05:50:01 PM 36.8258 -76.2692 38° Northeast 107 123 1,700 -293 Level Washington Center
Tue 05:51:01 PM 36.8511 -76.2486 33° Northeast 100 115 1,100 -545 Descending Washington Center
Tue 05:52:02 PM 36.8700 -76.2281 41° Northeast 96 110 600 -492 Descending Washington Center

Login

Don't have an account? Register now (free) for customized features, flight alerts, and more!